createdAt,value
2018-09-27T00:09:39.126Z,12.3
2018-09-27T00:19:38.420Z,12.2
2018-09-27T00:29:37.559Z,12.2
2018-09-27T00:39:36.786Z,12.2
2018-09-27T00:49:36.001Z,12.3
2018-09-27T00:59:35.218Z,12.1
2018-09-27T01:09:34.440Z,11.9
2018-09-27T01:19:33.651Z,11.9
2018-09-27T01:29:32.869Z,11.8
2018-09-27T01:39:32.083Z,11.7
2018-09-27T01:49:31.309Z,11.6
2018-09-27T01:59:30.523Z,11.6
2018-09-27T02:09:29.741Z,11.5
2018-09-27T02:19:28.954Z,11.4
2018-09-27T02:29:28.175Z,11.4
2018-09-27T02:39:27.388Z,11.5
2018-09-27T02:49:26.616Z,11.5
2018-09-27T02:59:25.828Z,11.6
2018-09-27T03:09:25.042Z,11.8
2018-09-27T03:19:24.266Z,11.9
2018-09-27T03:29:23.481Z,12
2018-09-27T03:39:22.705Z,12
2018-09-27T03:49:21.919Z,11.8
2018-09-27T03:59:21.139Z,11.8
2018-09-27T04:09:20.355Z,11.8
2018-09-27T04:19:19.581Z,11.9
2018-09-27T04:29:18.792Z,11.7
2018-09-27T04:39:18.016Z,11.6
2018-09-27T04:49:17.228Z,11.5
2018-09-27T04:59:16.456Z,11.5
2018-09-27T05:09:15.669Z,11.5
2018-09-27T05:19:14.889Z,11.7
2018-09-27T05:29:14.106Z,11.9
2018-09-27T05:39:13.329Z,12.6
2018-09-27T05:49:12.543Z,13.5
2018-09-27T05:59:11.760Z,14.1
2018-09-27T06:09:10.980Z,14.4
2018-09-27T06:19:10.204Z,15.1
2018-09-27T06:29:09.413Z,15.7
2018-09-27T06:39:08.635Z,16.2
2018-09-27T06:49:07.848Z,16.8
2018-09-27T06:59:07.066Z,17.5
2018-09-27T07:09:06.288Z,18.1
2018-09-27T07:19:05.592Z,18.6
2018-09-27T07:29:04.720Z,18.6
2018-09-27T07:39:03.939Z,18.8
2018-09-27T07:49:03.154Z,18.8
2018-09-27T07:59:02.378Z,18.9
2018-09-27T08:09:01.596Z,19.2
2018-09-27T08:19:00.813Z,19.3
2018-09-27T08:29:00.031Z,19.3
2018-09-27T08:38:59.245Z,19.4
2018-09-27T08:48:58.516Z,19.6
2018-09-27T08:58:57.679Z,19.6
2018-09-27T09:08:56.901Z,19.5
2018-09-27T09:18:56.118Z,19.6
2018-09-27T09:28:55.336Z,19.6
2018-09-27T09:38:54.552Z,19.6
2018-09-27T09:48:53.777Z,19.6
2018-09-27T09:58:52.990Z,19.6
2018-09-27T10:08:52.270Z,19.7
2018-09-27T10:18:51.420Z,19.7
2018-09-27T10:28:50.642Z,20.1
2018-09-27T10:38:49.848Z,20
2018-09-27T10:48:49.068Z,20.1
2018-09-27T10:58:48.285Z,20
2018-09-27T11:08:47.505Z,19.8
2018-09-27T11:18:46.717Z,19.3
2018-09-27T11:28:45.937Z,19.2
2018-09-27T11:38:45.150Z,18.9
2018-09-27T11:48:44.420Z,18.6
2018-09-27T11:58:43.583Z,18.5
2018-09-27T12:08:42.798Z,18.5
2018-09-27T12:18:42.013Z,18.4
2018-09-27T12:28:41.325Z,18.4
2018-09-27T12:38:40.512Z,18.6
2018-09-27T12:48:39.821Z,18.9
2018-09-27T12:58:38.944Z,18.6
2018-09-27T13:08:38.177Z,18.6
2018-09-27T13:18:37.322Z,18.8
2018-09-27T13:28:36.692Z,18.4
2018-09-27T13:38:35.746Z,18.4
2018-09-27T13:48:34.976Z,18.5
2018-09-27T13:58:34.186Z,18.5
2018-09-27T14:08:33.402Z,18.5
2018-09-27T14:18:32.619Z,18.3
2018-09-27T14:28:31.829Z,18.6
2018-09-27T14:38:31.045Z,18.4
2018-09-27T14:48:30.271Z,18.4
2018-09-27T14:58:29.508Z,18.3
2018-09-27T15:08:28.697Z,18.5
2018-09-27T15:18:27.910Z,18.3
2018-09-27T15:28:27.128Z,18.3
2018-09-27T15:38:26.347Z,18.3
2018-09-27T15:48:25.565Z,18.2
2018-09-27T15:58:24.817Z,18.1
2018-09-27T16:08:24.001Z,18.1
2018-09-27T16:18:23.226Z,18
2018-09-27T16:28:22.432Z,17.8
2018-09-27T16:38:21.651Z,17.6
2018-09-27T16:48:20.869Z,17.4
2018-09-27T16:58:20.079Z,17.4
2018-09-27T17:08:19.296Z,17.2
2018-09-27T17:18:18.513Z,17.2
2018-09-27T17:28:17.727Z,17.4
2018-09-27T17:38:16.947Z,17.6
2018-09-27T17:48:16.164Z,17.9
2018-09-27T17:58:15.383Z,18.1
2018-09-27T18:08:14.599Z,18.3
2018-09-27T18:18:13.821Z,18.4
2018-09-27T18:28:13.099Z,18.6
2018-09-27T18:38:12.501Z,18.8
2018-09-27T18:48:11.470Z,18.9
2018-09-27T18:58:10.687Z,19
2018-09-27T19:08:09.913Z,18.9
2018-09-27T19:18:09.132Z,18.8
2018-09-27T19:28:08.351Z,18.6
2018-09-27T19:38:07.562Z,41.3
2018-09-27T19:48:06.787Z,31.9
2018-09-27T19:58:06.029Z,21.7
2018-09-27T20:08:05.220Z,22.7
2018-09-27T20:18:04.440Z,32.1
2018-09-27T20:28:03.722Z,27.8
2018-09-27T20:38:02.885Z,33.9
2018-09-27T20:48:02.100Z,30.3
2018-09-27T20:58:01.317Z,35.2
2018-09-27T21:08:00.536Z,30.5
2018-09-27T21:17:59.753Z,34.6
2018-09-27T21:27:58.974Z,30.6
2018-09-27T21:37:58.192Z,29.1
2018-09-27T21:47:57.409Z,36.1
2018-09-27T21:57:56.642Z,28.9
2018-09-27T22:07:55.858Z,35
2018-09-27T22:17:55.077Z,35
2018-09-27T22:27:54.292Z,28.3
2018-09-27T22:37:53.510Z,34.6
2018-09-27T22:47:52.728Z,32.8
2018-09-27T22:57:51.945Z,31.5
2018-09-27T23:07:51.165Z,35.6
2018-09-27T23:17:50.373Z,28.1
2018-09-27T23:27:49.582Z,33.2
2018-09-27T23:37:48.802Z,32.2
2018-09-27T23:47:48.017Z,31.1
2018-09-27T23:57:47.237Z,35.3
